Terminal Aerodrome Forecast
Issued by NWS

Home | Current Version | Previous Version | Graphics & Text | Print | Product List | Glossary On
Versions: 1 2 3 4 5 6 7 8 9 10 11 12 13 14 15 16 17 18 19 20 21 22 23 24 25 26 27 28 29 30
869
FTUS43 KGRB 252340
TAFRHI
TAF
KRHI 252340Z 2600/2624 15007KT P6SM -SHRA OVC060
     FM260200 09004KT P6SM -SHRA OVC040
      TEMPO 2604/2606 5SM SHRA BR OVC020
     FM260600 07007KT 3SM SHRA OVC012
     FM260800 10007KT 3SM SHRA OVC007
     FM261600 17005KT 5SM -SHRA OVC007
     FM262000 24007KT P6SM -SHRA OVC012
     FM262200 30006KT P6SM OVC015=

USA.gov is the U.S. government's official web portal to all federal, state and local government web resources and services.